Time;durP1;ratioP1;P1;durP2;ratioP2;P2;SDS_P1;SDS_P2;PMS_P1;PMS_P2;Temp;Humidity;BMP_temperature;BMP_pressure;BME280_temperature;BME280_humidity;BME280_pressure;Samples;Min_cycle;Max_cycle;Signal;HPM_P1;HPM_P2
2022/06/19 00:00:32;;;;;;;16.77;2.50;;;;;;;18.09;78.16;100873.94;5014913;28;20053;-50
2022/06/19 00:02:58;;;;;;;11.23;1.85;;;;;;;18.10;78.16;100859.41;5011309;28;20543;-50
2022/06/19 00:05:23;;;;;;;11.80;2.15;;;;;;;18.01;77.84;100863.38;5014296;28;20026;-52
2022/06/19 00:07:49;;;;;;;13.52;2.78;;;;;;;18.03;78.48;100853.19;5013755;28;20641;-51
2022/06/19 00:10:14;;;;;;;9.40;2.00;;;;;;;18.03;77.81;100839.69;5015258;28;20087;-51
2022/06/19 00:12:40;;;;;;;12.27;2.15;;;;;;;17.98;77.60;100828.66;5014097;28;20014;-52
2022/06/19 00:15:06;;;;;;;12.43;2.20;;;;;;;17.91;78.29;100833.25;5009070;28;20026;-50
2022/06/19 00:17:32;;;;;;;10.40;2.25;;;;;;;17.85;78.63;100842.97;5015008;28;20368;-51
2022/06/19 00:19:57;;;;;;;10.73;2.50;;;;;;;17.87;79.01;100846.31;5012782;28;20037;-50
2022/06/19 00:22:22;;;;;;;10.07;1.80;;;;;;;17.70;78.99;100837.78;5018010;28;20085;-48
2022/06/19 00:24:47;;;;;;;12.60;2.05;;;;;;;17.52;78.57;100844.66;5029087;28;20021;-49
2022/06/19 00:27:13;;;;;;;12.15;1.88;;;;;;;17.44;77.23;100852.13;5013618;28;20132;-49
2022/06/19 00:29:38;;;;;;;15.25;2.22;;;;;;;17.42;77.59;100860.44;5013605;28;20033;-50
2022/06/19 00:32:07;;;;;;;15.18;1.92;;;;;;;17.30;75.64;100873.69;5029568;28;20096;-51
2022/06/19 00:34:34;;;;;;;12.18;2.10;;;;;;;17.29;76.23;100868.50;5014794;28;20029;-50
2022/06/19 00:37:01;;;;;;;9.05;1.92;;;;;;;17.27;75.32;100867.88;5013285;28;20025;-49
2022/06/19 00:39:27;;;;;;;10.65;2.03;;;;;;;17.21;75.65;100869.53;5013779;28;20033;-50
2022/06/19 00:41:52;;;;;;;15.38;2.50;;;;;;;17.13;75.32;100848.97;5011922;28;20033;-51
2022/06/19 00:44:18;;;;;;;11.73;1.90;;;;;;;17.15;74.97;100854.16;5012683;28;20039;-47
2022/06/19 00:46:53;;;;;;;11.80;2.17;;;;;;;17.11;75.27;100859.13;5022384;28;20149;-51
2022/06/19 00:49:27;;;;;;;14.02;2.00;;;;;;;17.09;75.44;100863.06;5017444;28;20074;-50
2022/06/19 00:52:09;;;;;;;12.50;1.90;;;;;;;16.93;76.52;100857.00;5031940;28;20025;-48
2022/06/19 00:54:53;;;;;;;12.15;1.92;;;;;;;16.96;75.93;100859.28;5015531;28;20033;-49
2022/06/19 00:57:19;;;;;;;9.73;2.20;;;;;;;16.92;76.18;100860.75;5015378;28;20096;-47
2022/06/19 00:59:52;;;;;;;8.73;2.05;;;;;;;16.90;75.64;100854.69;5012129;28;20058;-48
2022/06/19 01:02:18;;;;;;;10.57;1.90;;;;;;;16.96;75.15;100850.38;5014703;28;20021;-47
2022/06/19 01:04:51;;;;;;;15.05;2.10;;;;;;;16.95;74.50;100846.88;5016353;28;20033;-47
2022/06/19 01:07:17;;;;;;;11.77;2.13;;;;;;;16.94;74.04;100837.09;5011881;28;20100;-48
2022/06/19 01:09:44;;;;;;;12.43;2.13;;;;;;;16.85;74.30;100846.38;5016626;28;20033;-47
2022/06/19 01:12:10;;;;;;;12.95;2.15;;;;;;;16.88;74.22;100855.97;5016085;28;20021;-48
2022/06/19 01:14:38;;;;;;;13.05;2.20;;;;;;;16.74;74.13;100899.03;5015239;28;20505;-47
2022/06/19 01:17:03;;;;;;;13.90;2.40;;;;;;;16.47;74.63;100992.41;5015994;28;20364;-50
2022/06/19 01:19:33;;;;;;;12.70;1.98;;;;;;;16.23;75.10;101048.41;5011676;28;20412;-52
2022/06/19 01:22:21;;;;;;;15.57;2.35;;;;;;;16.04;73.02;100987.94;5013583;28;20084;-51
2022/06/19 01:24:58;;;;;;;11.43;1.92;;;;;;;16.06;72.37;100908.78;5015965;28;20028;-50
2022/06/19 01:30:12;;;;;;;18.05;2.40;;;;;;;15.81;72.07;100992.69;5013388;28;20072;-47
2022/06/19 01:32:39;;;;;;;18.50;2.53;;;;;;;15.63;73.29;100958.94;5015007;28;20479;-47
2022/06/19 01:35:07;;;;;;;17.80;2.00;;;;;;;15.75;73.20;100923.38;5014208;28;20983;-47
2022/06/19 01:37:34;;;;;;;12.55;2.35;;;;;;;15.70;70.92;100933.91;5015080;28;20791;-53
2022/06/19 01:40:09;;;;;;;15.43;2.58;;;;;;;15.57;70.57;100969.63;5014811;28;20022;-50
2022/06/19 01:42:35;;;;;;;12.63;2.00;;;;;;;15.53;71.26;100979.94;5015671;28;20029;-48
2022/06/19 01:45:01;;;;;;;14.82;1.98;;;;;;;15.52;69.70;100972.06;5014496;28;20652;-47
2022/06/19 01:47:27;;;;;;;13.85;1.98;;;;;;;15.62;69.50;100986.03;5014146;28;20055;-49
2022/06/19 01:49:55;;;;;;;17.48;2.40;;;;;;;15.55;69.06;100977.88;5005928;28;20133;-48
2022/06/19 01:52:25;;;;;;;13.27;1.80;;;;;;;15.60;69.01;100963.88;5011992;28;20289;-48
2022/06/19 01:54:56;;;;;;;11.18;2.33;;;;;;;15.55;68.43;100956.34;5015726;28;20025;-51
2022/06/19 01:57:23;;;;;;;18.20;2.45;;;;;;;15.43;66.97;100976.72;5015174;28;20333;-46
2022/06/19 01:59:50;;;;;;;14.98;2.08;;;;;;;15.45;66.00;100970.13;5009407;28;20144;-49
2022/06/19 02:02:16;;;;;;;14.02;1.77;;;;;;;15.36;65.64;100983.88;5013376;28;20025;-47
2022/06/19 02:04:43;;;;;;;15.30;1.90;;;;;;;15.43;65.94;100984.81;5016387;28;20494;-51
2022/06/19 02:07:19;;;;;;;10.82;1.73;;;;;;;15.43;65.97;100969.47;5014700;28;20037;-51
2022/06/19 02:09:46;;;;;;;16.38;1.77;;;;;;;15.47;65.52;100986.06;5015556;28;20112;-52
2022/06/19 02:12:11;;;;;;;11.82;2.40;;;;;;;15.46;65.23;100989.78;5014026;28;20055;-49
2022/06/19 02:14:37;;;;;;;11.32;2.10;;;;;;;15.40;65.80;100966.34;5014421;28;20488;-50
2022/06/19 02:17:11;;;;;;;17.50;2.00;;;;;;;15.44;65.54;100970.31;5015266;28;20034;-50
2022/06/19 02:19:37;;;;;;;12.40;2.03;;;;;;;15.35;65.55;100971.44;5008027;28;20517;-49
2022/06/19 02:22:09;;;;;;;12.65;1.70;;;;;;;15.40;64.08;100988.69;5004682;28;20116;-51
2022/06/19 02:24:35;;;;;;;12.50;1.60;;;;;;;15.44;63.51;100973.84;5010064;28;20168;-52
2022/06/19 02:27:00;;;;;;;9.75;1.90;;;;;;;15.40;63.35;100966.34;5014551;28;20351;-51
2022/06/19 02:29:26;;;;;;;9.48;1.77;;;;;;;15.41;63.24;100976.91;5010431;28;20021;-48
2022/06/19 02:31:53;;;;;;;14.43;1.70;;;;;;;15.47;63.55;100986.06;5012857;28;20270;-49
2022/06/19 02:34:37;;;;;;;10.95;2.13;;;;;;;15.46;64.27;100995.16;5014667;28;20484;-47
2022/06/19 02:37:17;;;;;;;14.73;2.38;;;;;;;15.52;65.08;100990.91;5015564;28;20029;-47
2022/06/19 02:39:51;;;;;;;12.00;1.40;;;;;;;15.56;63.19;100982.22;5016016;28;20026;-47
2022/06/19 02:42:19;;;;;;;14.00;1.98;;;;;;;15.53;62.89;101006.00;5014808;28;20523;-46
2022/06/19 02:44:46;;;;;;;9.23;1.50;;;;;;;15.47;62.57;100991.47;5014172;28;20029;-47
2022/06/19 02:47:11;;;;;;;15.95;1.80;;;;;;;15.44;62.56;100979.22;5014756;28;20037;-48
2022/06/19 02:49:37;;;;;;;8.15;1.63;;;;;;;15.33;62.10;100978.91;5013659;28;20513;-49
2022/06/19 02:52:04;;;;;;;11.15;1.55;;;;;;;15.34;62.58;100967.09;5013990;28;20023;-50
2022/06/19 02:54:30;;;;;;;10.00;1.60;;;;;;;15.23;63.63;100973.81;5019091;28;20058;-51
2022/06/19 02:56:56;;;;;;;12.60;1.88;;;;;;;15.27;62.80;100981.31;5018507;28;20523;-50
2022/06/19 02:59:21;;;;;;;14.27;1.58;;;;;;;15.18;62.65;101025.47;5016406;28;20144;-51
2022/06/19 03:01:46;;;;;;;10.38;1.90;;;;;;;15.06;63.44;101107.66;5011643;28;20529;-51
2022/06/19 03:04:23;;;;;;;11.15;1.52;;;;;;;15.10;63.79;101111.66;5015458;28;20916;-50
2022/06/19 03:06:50;;;;;;;8.75;1.33;;;;;;;15.12;62.42;101080.00;5018018;28;20025;-49
2022/06/19 03:09:15;;;;;;;8.77;1.30;;;;;;;15.06;60.28;101052.00;5018327;28;20029;-50
2022/06/19 03:11:40;;;;;;;13.55;1.58;;;;;;;15.10;62.99;101018.34;5018207;28;20064;-49
2022/06/19 03:14:06;;;;;;;8.57;1.23;;;;;;;15.04;60.50;101013.72;5016598;28;20044;-50
2022/06/19 03:16:31;;;;;;;5.78;1.05;;;;;;;15.07;61.98;101016.03;5018268;28;20055;-50
2022/06/19 03:18:58;;;;;;;6.90;1.02;;;;;;;15.07;61.10;101009.78;5018078;28;20076;-49
2022/06/19 03:21:23;;;;;;;10.05;1.30;;;;;;;15.04;61.76;100986.00;5017676;28;20021;-50
2022/06/19 03:23:49;;;;;;;10.35;1.48;;;;;;;15.02;62.78;100969.19;5011477;28;20049;-48
2022/06/19 03:26:14;;;;;;;7.00;1.10;;;;;;;15.01;62.65;100973.72;5015787;28;20060;-48
2022/06/19 03:28:39;;;;;;;8.35;1.10;;;;;;;14.97;60.06;100990.41;5017573;28;20087;-50
2022/06/19 03:31:05;;;;;;;8.07;1.30;;;;;;;14.89;61.08;101016.41;5017519;28;20178;-46
2022/06/19 03:33:30;;;;;;;7.93;1.40;;;;;;;14.90;63.98;101014.53;5015218;28;20307;-46
2022/06/19 03:35:55;;;;;;;9.00;0.90;;;;;;;14.91;62.82;100976.69;5012644;28;20125;-47
2022/06/19 03:38:21;;;;;;;8.23;1.15;;;;;;;14.90;62.24;100958.91;5016699;28;20017;-46
2022/06/19 03:40:46;;;;;;;6.38;1.00;;;;;;;14.87;60.13;100948.53;5017675;28;20087;-47
2022/06/19 03:43:12;;;;;;;10.05;1.10;;;;;;;14.85;59.59;100944.34;5018051;28;20468;-49
2022/06/19 03:45:37;;;;;;;9.10;0.90;;;;;;;14.83;59.83;100906.88;5016315;28;20044;-48
2022/06/19 03:48:03;;;;;;;6.82;1.17;;;;;;;14.82;58.31;100902.53;5017452;28;20021;-47
2022/06/19 03:50:28;;;;;;;7.20;0.98;;;;;;;14.85;58.28;100928.22;5017152;28;20029;-50
2022/06/19 03:52:54;;;;;;;8.80;1.00;;;;;;;14.85;57.39;100987.38;5014412;28;20025;-47
2022/06/19 03:55:19;;;;;;;7.95;0.90;;;;;;;14.88;58.29;101038.94;5017527;28;20151;-48
2022/06/19 03:57:44;;;;;;;12.85;1.10;;;;;;;14.88;57.39;101004.00;5017913;28;20519;-47
2022/06/19 04:00:14;;;;;;;3.45;0.77;;;;;;;14.87;57.03;101018.44;5009249;28;20125;-48
2022/06/19 04:02:39;;;;;;;4.53;0.90;;;;;;;14.96;56.95;101004.91;5010743;28;20026;-49
2022/06/19 04:05:05;;;;;;;4.45;0.70;;;;;;;14.96;57.39;100949.25;5017010;28;20381;-47
2022/06/19 04:07:30;;;;;;;7.80;0.90;;;;;;;15.00;57.96;100914.75;5017374;28;20034;-46
2022/06/19 04:10:00;;;;;;;5.03;0.80;;;;;;;15.06;57.07;100904.06;5014850;28;20128;-49
2022/06/19 04:12:25;;;;;;;10.15;1.08;;;;;;;14.99;56.72;100908.53;5013012;28;20021;-51
2022/06/19 04:14:52;;;;;;;10.88;1.02;;;;;;;14.98;58.45;100884.53;5002991;28;20029;-47
2022/06/19 04:17:17;;;;;;;8.35;1.13;;;;;;;15.04;57.56;100846.94;5015720;28;20033;-48
2022/06/19 04:19:43;;;;;;;11.65;1.20;;;;;;;14.99;57.68;100829.72;5017722;28;20472;-53
2022/06/19 04:22:08;;;;;;;8.60;1.27;;;;;;;15.02;58.19;100814.03;5016227;28;20387;-50
2022/06/19 04:24:33;;;;;;;6.75;1.00;;;;;;;15.13;59.66;100798.41;5016575;28;20021;-45
2022/06/19 04:27:04;;;;;;;8.77;1.35;;;;;;;15.11;58.96;100777.09;5016127;28;20030;-47
2022/06/19 04:29:29;;;;;;;10.90;1.00;;;;;;;15.10;59.47;100770.03;5015698;28;20054;-48
2022/06/19 04:31:56;;;;;;;6.65;1.23;;;;;;;15.11;60.53;100787.84;5013511;28;20037;-49
2022/06/19 04:34:21;;;;;;;7.43;1.10;;;;;;;15.10;61.26;100770.88;5009608;28;20029;-49
2022/06/19 04:36:46;;;;;;;9.00;1.40;;;;;;;15.08;62.05;100780.97;5015864;28;20025;-51
2022/06/19 04:39:12;;;;;;;8.52;1.30;;;;;;;15.17;62.11;100776.28;5016446;28;20757;-50
2022/06/19 04:41:42;;;;;;;8.85;1.40;;;;;;;15.22;62.27;100778.41;5013161;28;20048;-47
2022/06/19 04:44:12;;;;;;;7.57;1.42;;;;;;;15.33;62.15;100777.06;5008667;28;20353;-47
2022/06/19 04:46:38;;;;;;;11.98;1.27;;;;;;;15.37;62.09;100778.34;5012918;28;20471;-49
2022/06/19 04:49:03;;;;;;;13.23;1.50;;;;;;;15.43;61.91;100774.88;5015570;28;20088;-51
2022/06/19 04:51:29;;;;;;;8.05;1.17;;;;;;;15.45;61.49;100727.88;5015552;28;20049;-50
2022/06/19 04:53:54;;;;;;;9.25;1.38;;;;;;;15.45;61.85;100708.22;5016432;28;20227;-49
2022/06/19 04:56:21;;;;;;;12.82;1.83;;;;;;;15.43;62.50;100737.19;5016282;28;20017;-50
2022/06/19 04:58:47;;;;;;;6.55;1.23;;;;;;;15.48;62.46;100732.88;5015357;28;20380;-49
2022/06/19 05:01:26;;;;;;;8.50;1.45;;;;;;;15.52;63.20;100765.63;5016365;28;20055;-47
2022/06/19 05:03:54;;;;;;;5.75;0.95;;;;;;;15.59;63.13;100768.38;5010931;28;20090;-51
2022/06/19 05:06:20;;;;;;;7.10;1.38;;;;;;;15.61;62.54;100779.75;5012945;28;20039;-46
2022/06/19 05:08:45;;;;;;;8.05;1.40;;;;;;;15.61;62.88;100771.69;5016154;28;20021;-47
2022/06/19 05:11:11;;;;;;;8.88;1.77;;;;;;;15.66;63.03;100780.84;5015955;28;20025;-50
2022/06/19 05:13:37;;;;;;;6.50;1.23;;;;;;;15.73;62.02;100774.66;5009944;28;20260;-49
2022/06/19 05:16:05;;;;;;;10.38;1.38;;;;;;;15.80;61.98;100791.72;5010665;28;20028;-48
2022/06/19 05:18:31;;;;;;;7.00;1.00;;;;;;;15.84;62.82;100844.19;5015101;28;20250;-51
2022/06/19 05:21:01;;;;;;;8.00;1.63;;;;;;;15.85;62.83;100859.28;5002629;28;20026;-51
2022/06/19 05:23:30;;;;;;;10.57;1.40;;;;;;;15.89;61.69;100839.03;5015060;28;20021;-51
2022/06/19 05:26:05;;;;;;;8.98;1.30;;;;;;;16.06;62.12;100841.44;5015206;28;20586;-51
2022/06/19 05:28:33;;;;;;;10.48;1.40;;;;;;;16.11;63.24;100872.13;5008792;28;20014;-51
2022/06/19 05:30:59;;;;;;;7.47;1.17;;;;;;;16.17;64.52;100905.53;5015341;28;20041;-51
2022/06/19 05:33:26;;;;;;;7.85;1.17;;;;;;;16.16;63.32;100930.84;5013071;28;20017;-47
2022/06/19 05:35:51;;;;;;;11.57;1.60;;;;;;;16.16;63.90;100933.53;5014758;28;20253;-50
2022/06/19 05:38:17;;;;;;;11.93;1.60;;;;;;;16.13;64.12;100934.72;5007792;28;20088;-49
2022/06/19 05:40:42;;;;;;;10.60;1.52;;;;;;;16.21;63.90;100941.84;5015692;28;20136;-50
2022/06/19 05:43:09;;;;;;;13.35;1.70;;;;;;;16.26;62.69;100941.25;5014122;28;20439;-54
2022/06/19 05:45:34;;;;;;;10.35;1.73;;;;;;;16.44;63.29;100954.22;5014398;28;20025;-49
2022/06/19 05:48:00;;;;;;;7.97;1.42;;;;;;;16.64;64.10;100949.78;5012898;28;20435;-46
2022/06/19 05:50:25;;;;;;;7.25;1.20;;;;;;;16.66;61.95;100952.28;5011794;28;20036;-47
2022/06/19 05:52:50;;;;;;;11.90;1.75;;;;;;;16.63;61.20;100933.81;5014927;28;20497;-46
2022/06/19 05:55:16;;;;;;;11.10;1.30;;;;;;;16.48;61.60;100948.25;5015204;28;20790;-49
2022/06/19 05:57:41;;;;;;;11.27;1.35;;;;;;;16.58;63.61;100961.38;5015344;28;20025;-47
2022/06/19 06:00:08;;;;;;;12.38;1.23;;;;;;;16.54;61.53;100968.19;5013564;28;20149;-50
2022/06/19 06:02:35;;;;;;;12.57;1.50;;;;;;;16.54;62.99;100974.41;5014304;28;20059;-49
2022/06/19 06:05:01;;;;;;;5.72;1.15;;;;;;;16.52;62.82;100979.19;5014700;28;20586;-49
2022/06/19 06:07:27;;;;;;;10.25;1.42;;;;;;;16.41;62.92;100996.75;5014665;28;20048;-48
2022/06/19 06:09:52;;;;;;;10.05;1.80;;;;;;;16.33;61.87;101012.22;5015339;28;20468;-49
2022/06/19 06:12:18;;;;;;;10.45;1.48;;;;;;;16.45;62.84;101023.31;5002949;28;20026;-50
2022/06/19 06:14:43;;;;;;;12.18;1.70;;;;;;;16.59;62.93;101011.56;5015115;28;20033;-51
2022/06/19 06:17:09;;;;;;;10.00;1.42;;;;;;;16.87;64.42;101002.66;5013901;28;20033;-48
2022/06/19 06:19:34;;;;;;;9.70;1.30;;;;;;;17.15;61.41;101000.72;5014057;28;20036;-50
2022/06/19 06:22:02;;;;;;;8.98;1.38;;;;;;;17.41;58.98;101049.63;5007448;28;20026;-48
2022/06/19 06:24:27;;;;;;;13.10;1.75;;;;;;;17.24;59.02;101084.22;5011514;28;20373;-48
2022/06/19 06:26:53;;;;;;;13.20;1.60;;;;;;;17.19;59.47;101092.09;5021364;28;20439;-46
2022/06/19 06:29:20;;;;;;;12.45;1.40;;;;;;;17.11;57.89;101115.50;5013477;28;20086;-47
2022/06/19 06:31:46;;;;;;;8.82;1.42;;;;;;;17.03;58.35;101128.31;5021150;28;20046;-50
2022/06/19 06:34:11;;;;;;;9.80;1.75;;;;;;;17.03;59.04;101118.34;5020414;28;20249;-48
2022/06/19 06:36:36;;;;;;;5.85;1.00;;;;;;;17.02;58.47;101132.03;5020345;28;20025;-50
2022/06/19 06:39:02;;;;;;;8.45;1.25;;;;;;;16.93;58.19;101144.84;5021083;28;20254;-51
2022/06/19 06:41:27;;;;;;;11.40;1.50;;;;;;;16.78;58.08;101163.78;5018800;28;20021;-50
2022/06/19 06:43:53;;;;;;;7.05;1.23;;;;;;;16.71;56.03;101206.88;5020457;28;20448;-52
2022/06/19 06:46:22;;;;;;;9.07;1.40;;;;;;;16.60;54.62;101259.47;5017844;28;20033;-48
2022/06/19 06:48:53;;;;;;;7.85;1.05;;;;;;;16.56;56.98;101233.06;5009197;28;20018;-48
2022/06/19 06:51:22;;;;;;;12.27;1.70;;;;;;;16.35;61.41;101226.63;5019419;28;20021;-46
2022/06/19 06:53:48;;;;;;;8.15;1.40;;;;;;;16.13;68.15;101250.00;5018225;28;20060;-48
2022/06/19 06:56:14;;;;;;;6.85;1.20;;;;;;;15.84;72.74;101232.00;5026088;28;20056;-49
2022/06/19 06:58:39;;;;;;;11.38;1.30;;;;;;;15.63;74.22;101244.31;5020148;28;20090;-47
2022/06/19 07:01:15;;;;;;;4.30;1.13;;;;;;;15.50;78.39;101240.59;5020601;28;20177;-48
2022/06/19 07:03:44;;;;;;;13.13;1.63;;;;;;;15.47;79.57;101234.53;5020674;28;20044;-50
2022/06/19 07:06:10;;;;;;;12.00;1.40;;;;;;;15.32;81.58;101240.94;5020968;28;20076;-48
2022/06/19 07:08:37;;;;;;;15.15;1.70;;;;;;;15.35;82.37;101217.19;5021175;28;20021;-49
2022/06/19 07:11:03;;;;;;;13.80;1.80;;;;;;;15.39;81.45;101236.47;5020371;28;20427;-47
2022/06/19 07:13:28;;;;;;;10.48;1.40;;;;;;;15.39;83.28;101223.03;5019921;28;20014;-51
2022/06/19 07:15:53;;;;;;;11.88;1.90;;;;;;;15.33;83.99;101221.91;5017875;28;20037;-47
2022/06/19 07:18:19;;;;;;;10.52;1.90;;;;;;;15.39;85.35;101239.16;5019762;28;20515;-47
2022/06/19 07:20:45;;;;;;;8.55;1.60;;;;;;;15.43;84.87;101238.63;5009785;28;20026;-51
2022/06/19 07:23:11;;;;;;;13.25;1.50;;;;;;;15.39;86.29;101242.69;5019444;28;20423;-50
2022/06/19 07:25:36;;;;;;;16.85;1.77;;;;;;;15.43;90.47;101278.19;5018338;28;20254;-48
2022/06/19 07:28:02;;;;;;;15.90;1.98;;;;;;;15.34;90.91;101303.47;5017763;28;20021;-47
2022/06/19 07:30:28;;;;;;;9.27;1.60;;;;;;;15.21;93.80;101299.53;5021051;28;20115;-48
2022/06/19 07:32:55;;;;;;;10.95;1.83;;;;;;;15.17;97.66;101276.69;5020311;28;20061;-48
2022/06/19 07:35:20;;;;;;;13.50;1.73;;;;;;;15.15;98.44;101240.25;5019546;28;20107;-47
2022/06/19 07:37:45;;;;;;;13.82;1.65;;;;;;;15.11;98.64;101176.03;5017386;28;20469;-50
2022/06/19 07:40:14;;;;;;;14.45;1.88;;;;;;;15.05;100.00;101182.16;5017554;28;20021;-50
2022/06/19 07:42:39;;;;;;;11.75;1.60;;;;;;;14.95;100.00;101159.22;5018885;28;20136;-48
2022/06/19 07:45:05;;;;;;;14.32;2.17;;;;;;;14.95;100.00;101082.03;5016596;28;20029;-46
2022/06/19 07:50:16;;;;;;;10.75;1.45;;;;;;;14.84;100.00;101024.19;5012649;28;20088;-49
2022/06/19 07:52:44;;;;;;;18.88;2.53;;;;;;;14.72;100.00;101056.06;5015458;28;20134;-50
2022/06/19 07:55:12;;;;;;;14.60;2.05;;;;;;;14.85;100.00;101060.81;5018001;28;20036;-50
2022/06/19 07:57:38;;;;;;;11.65;2.20;;;;;;;14.98;100.00;101056.66;5017361;28;20033;-49
2022/06/19 08:00:06;;;;;;;13.60;2.17;;;;;;;15.16;100.00;101049.03;5013679;28;20034;-50
2022/06/19 08:02:32;;;;;;;15.10;2.22;;;;;;;15.22;100.00;101091.34;5012859;28;20390;-50
2022/06/19 08:04:58;;;;;;;9.82;1.75;;;;;;;15.39;100.00;101134.22;5015771;28;20072;-50
2022/06/19 08:07:23;;;;;;;16.35;1.90;;;;;;;15.40;100.00;101177.09;5015254;28;20044;-50
2022/06/19 08:09:49;;;;;;;15.90;2.20;;;;;;;15.59;100.00;101191.03;5014257;28;20021;-49
2022/06/19 08:12:14;;;;;;;15.80;1.70;;;;;;;15.71;100.00;101188.69;5017286;28;20017;-46
2022/06/19 08:14:39;;;;;;;10.07;1.85;;;;;;;15.78;100.00;101179.72;5013407;28;20033;-52
2022/06/19 08:17:05;;;;;;;16.70;2.40;;;;;;;15.82;100.00;101175.63;5014134;28;20049;-52
2022/06/19 08:19:30;;;;;;;14.43;2.30;;;;;;;15.72;100.00;101214.63;5011090;28;20029;-50
2022/06/19 08:21:56;;;;;;;13.23;2.10;;;;;;;15.68;100.00;101192.59;5014548;28;20036;-50
2022/06/19 08:24:21;;;;;;;12.57;2.10;;;;;;;15.59;100.00;101121.84;5012850;28;20022;-47
2022/06/19 08:26:50;;;;;;;16.00;2.80;;;;;;;15.37;100.00;101131.69;5015556;28;20029;-51
2022/06/19 08:29:15;;;;;;;17.40;2.70;;;;;;;15.17;100.00;101174.44;5012631;28;20419;-48
2022/06/19 08:31:41;;;;;;;12.02;2.28;;;;;;;15.37;100.00;101198.97;5012545;28;20190;-51
2022/06/19 08:34:06;;;;;;;12.20;2.10;;;;;;;15.56;100.00;101159.91;5012692;28;20045;-49
2022/06/19 08:36:34;;;;;;;12.43;2.17;;;;;;;15.65;100.00;101137.25;5012984;28;20033;-47
2022/06/19 08:39:04;;;;;;;13.25;2.28;;;;;;;15.70;100.00;101157.41;5016963;28;20813;-49
2022/06/19 08:41:45;;;;;;;15.95;2.42;;;;;;;15.87;100.00;101145.44;5024402;28;20512;-50
2022/06/19 08:44:41;;;;;;;10.20;1.95;;;;;;;15.81;100.00;101111.19;5014629;28;20017;-48
2022/06/19 08:47:27;;;;;;;11.70;1.75;;;;;;;15.87;100.00;101107.75;5012695;28;20456;-50
2022/06/19 08:50:07;;;;;;;11.63;2.35;;;;;;;15.75;100.00;101096.63;5013035;28;20108;-51
2022/06/19 08:52:53;;;;;;;12.45;2.50;;;;;;;15.75;100.00;101095.72;5012017;28;20096;-48
2022/06/19 08:55:41;;;;;;;11.18;2.03;;;;;;;15.91;100.00;101095.53;5015226;28;20123;-48
2022/06/19 08:58:13;;;;;;;13.48;2.20;;;;;;;15.62;100.00;101070.31;4973614;28;22036;-48
2022/06/19 09:00:41;;;;;;;;;;;;;;;15.54;100.00;101048.06;5013429;28;20535;-47
2022/06/19 09:03:17;;;;;;;13.27;2.33;;;;;;;15.51;100.00;101040.38;5015064;28;20105;-47
2022/06/19 09:06:24;;;;;;;10.82;2.30;;;;;;;15.75;100.00;101044.56;5015246;28;20029;-49
2022/06/19 09:09:27;;;;;;;16.85;2.30;;;;;;;16.24;100.00;101035.75;5005087;28;20544;-52
2022/06/19 09:12:18;;;;;;;13.43;2.00;;;;;;;16.92;100.00;101036.09;4953233;28;20046;-48
2022/06/19 09:14:52;;;;;;;10.68;2.13;;;;;;;17.32;100.00;101043.56;4952904;28;20257;-51
2022/06/19 09:17:45;;;;;;;12.73;2.28;;;;;;;17.37;93.95;101054.59;4994802;28;20416;-48
2022/06/19 09:20:34;;;;;;;8.52;2.05;;;;;;;17.67;95.98;101079.44;5006755;28;20465;-50
2022/06/19 09:23:18;;;;;;;9.98;1.90;;;;;;;18.04;95.17;101109.72;4990514;28;20053;-49
2022/06/19 09:26:03;;;;;;;11.55;1.85;;;;;;;17.90;91.90;101118.81;5015238;28;20052;-51
2022/06/19 09:29:06;;;;;;;9.30;2.40;;;;;;;17.80;93.72;101139.94;5005325;28;20091;-49
2022/06/19 09:32:06;;;;;;;15.45;2.08;;;;;;;17.87;92.97;101166.00;5008806;28;20069;-50
2022/06/19 09:34:51;;;;;;;8.80;2.08;;;;;;;18.12;89.79;101178.97;4988661;28;20416;-48
2022/06/19 09:37:39;;;;;;;12.88;1.90;;;;;;;18.61;85.54;101177.84;5012478;28;20028;-47
2022/06/19 09:40:18;;;;;;;11.27;2.10;;;;;;;18.89;78.97;101167.88;5010831;28;20565;-48
2022/06/19 09:42:48;;;;;;;9.00;1.60;;;;;;;19.24;76.63;101167.66;5009563;28;20080;-52
2022/06/19 09:45:23;;;;;;;8.47;1.80;;;;;;;18.78;72.62;101166.63;5013911;28;20774;-51
2022/06/19 09:48:21;;;;;;;10.75;1.58;;;;;;;18.59;75.56;101152.03;5014816;28;20485;-50
2022/06/19 09:50:55;;;;;;;7.22;1.73;;;;;;;18.77;74.68;101135.19;5013896;28;20017;-48
2022/06/19 09:53:34;;;;;;;9.90;1.42;;;;;;;19.08;73.85;101121.03;5011934;28;20029;-49
2022/06/19 09:56:34;;;;;;;10.27;1.48;;;;;;;19.29;73.04;101127.25;5018323;28;20213;-48
2022/06/19 09:59:14;;;;;;;9.65;1.70;;;;;;;19.58;71.60;101106.94;5011367;28;20029;-47
2022/06/19 10:01:42;;;;;;;11.18;1.73;;;;;;;19.76;73.38;101103.56;5007974;28;20189;-49
2022/06/19 10:04:27;;;;;;;7.72;1.38;;;;;;;19.66;69.63;101101.28;5008789;28;20037;-49
2022/06/19 10:07:00;;;;;;;8.82;1.30;;;;;;;19.48;68.89;101087.59;5010730;28;20332;-49
2022/06/19 10:09:47;;;;;;;5.55;1.38;;;;;;;19.39;69.82;101092.41;5012148;28;20044;-48
2022/06/19 10:12:22;;;;;;;7.55;1.27;;;;;;;19.13;69.04;101096.06;5007010;28;20037;-50
2022/06/19 10:14:51;;;;;;;6.95;1.70;;;;;;;19.14;67.00;101084.97;5006089;28;20392;-50
2022/06/19 10:17:28;;;;;;;7.07;1.40;;;;;;;19.37;66.85;101073.69;5022464;28;20340;-52
2022/06/19 10:20:03;;;;;;;5.45;1.30;;;;;;;19.55;68.71;101062.16;5014441;28;20037;-51
2022/06/19 10:22:53;;;;;;;6.07;1.00;;;;;;;19.87;69.63;101042.41;5010149;28;20068;-50
2022/06/19 10:25:30;;;;;;;8.77;1.50;;;;;;;20.22;67.03;101048.22;5008958;28;20056;-50
2022/06/19 10:28:23;;;;;;;11.95;1.50;;;;;;;20.31;66.31;101046.91;5017296;28;20021;-51
2022/06/19 10:31:23;;;;;;;8.00;1.63;;;;;;;20.33;65.88;101033.09;5007651;28;20501;-52
2022/06/19 10:33:57;;;;;;;4.40;1.00;;;;;;;20.64;64.55;101031.44;5016292;28;20055;-50
2022/06/19 10:36:52;;;;;;;6.75;1.42;;;;;;;20.78;64.92;101034.84;5026574;28;20021;-50
2022/06/19 10:40:03;;;;;;;6.93;1.70;;;;;;;21.20;63.60;101038.53;5011694;28;20029;-51
2022/06/19 10:42:41;;;;;;;;;;;;;;;21.58;60.75;101052.94;5004635;28;20072;-50
2022/06/19 10:45:24;;;;;;;3.30;0.95;;;;;;;21.54;58.35;101062.63;5014130;28;20376;-52
2022/06/19 10:47:59;;;;;;;7.53;1.58;;;;;;;21.58;57.94;101044.78;5000373;28;20033;-52
2022/06/19 10:50:49;;;;;;;7.85;1.33;;;;;;;21.36;56.96;101034.38;5019538;28;20057;-51
2022/06/19 10:53:34;;;;;;;12.77;1.30;;;;;;;21.39;58.16;101041.25;5009558;28;20045;-52
2022/06/19 10:56:14;;;;;;;5.65;1.40;;;;;;;21.38;57.81;101055.88;5012727;28;20599;-51
2022/06/19 10:58:40;;;;;;;7.88;1.55;;;;;;;21.44;63.90;101071.28;5028354;28;20133;-51
2022/06/19 11:01:08;;;;;;;9.45;1.52;;;;;;;20.99;59.08;101077.00;5008820;28;20708;-52
2022/06/19 11:06:29;;;;;;;8.23;1.60;;;;;;;20.77;64.05;101109.16;5013819;28;20392;-52
2022/06/19 11:09:15;;;;;;;8.23;1.55;;;;;;;20.77;61.34;101112.69;5013494;28;20296;-49
2022/06/19 11:11:44;;;;;;;9.25;1.77;;;;;;;20.94;63.04;101112.97;5019784;28;20102;-50
2022/06/19 11:14:12;;;;;;;7.13;1.70;;;;;;;21.01;60.52;101113.75;5024737;28;20033;-47
2022/06/19 11:17:01;;;;;;;7.93;1.83;;;;;;;21.48;59.37;101109.72;5018896;28;20084;-49
2022/06/19 11:19:48;;;;;;;8.48;1.52;;;;;;;21.67;60.40;101114.06;5021242;28;20108;-52
2022/06/19 11:22:22;;;;;;;5.78;1.55;;;;;;;21.32;60.71;101111.16;5026670;28;20069;-51
2022/06/19 11:24:47;;;;;;;7.75;1.63;;;;;;;21.21;59.52;101126.28;5016340;28;20471;-50
2022/06/19 11:27:20;;;;;;;7.32;1.70;;;;;;;21.38;62.44;101142.81;5012377;28;20030;-50
2022/06/19 11:29:48;;;;;;;8.55;1.90;;;;;;;21.18;62.19;101145.75;5013149;28;20048;-50
2022/06/19 11:32:17;;;;;;;8.65;1.90;;;;;;;20.99;63.24;101139.44;5013685;28;20260;-51
2022/06/19 11:34:54;;;;;;;8.65;2.22;;;;;;;21.17;64.67;101139.50;5017446;28;20473;-51
2022/06/19 11:37:23;;;;;;;10.02;2.30;;;;;;;21.72;66.17;101141.41;5015245;28;20036;-51
2022/06/19 11:39:53;;;;;;;11.40;2.22;;;;;;;21.86;63.11;101143.97;5017045;28;20059;-49
2022/06/19 11:42:47;;;;;;;11.00;2.20;;;;;;;21.97;61.90;101149.44;5016226;28;20044;-51